Time;durP1;ratioP1;P1;durP2;ratioP2;P2;SDS_P1;SDS_P2;PMS_P1;PMS_P2;Temp;Humidity;BMP_temperature;BMP_pressure;BME280_temperature;BME280_humidity;BME280_pressure;Samples;Min_cycle;Max_cycle;Signal;HPM_P1;HPM_P2
2022/07/19 00:02:29;;;;;;;;;;;;;;;;;;5014378;28;19940;-82
2022/07/19 00:05:14;;;;;;;;;;;;;;;;;;5020502;28;19923;-83
2022/07/19 00:07:56;;;;;;;;;;;;;;;;;;5019874;28;19921;-85
2022/07/19 00:10:40;;;;;;;;;;;;;;;;;;5025548;28;19921;-83
2022/07/19 00:13:25;;;;;;;;;;;;;;;;;;5015725;28;20294;-82
2022/07/19 00:16:10;;;;;;;;;;;;;;;;;;5023092;28;20006;-84
2022/07/19 00:18:52;;;;;;;;;;;;;;;;;;5017935;28;19995;-87
2022/07/19 00:21:37;;;;;;;;;;;;;;;;;;5031251;28;19976;-86
2022/07/19 00:24:22;;;;;;;;;;;;;;;;;;5021403;28;20076;-82
2022/07/19 00:27:07;;;;;;;;;;;;;;;;;;5012561;28;19921;-80
2022/07/19 00:29:52;;;;;;;;;;;;;;;;;;5014571;28;19916;-86
2022/07/19 00:32:37;;;;;;;;;;;;;;;;;;5015739;28;19916;-82
2022/07/19 00:35:22;;;;;;;;;;;;;;;;;;5025843;28;19916;-83
2022/07/19 00:38:04;;;;;;;;;;;;;;;;;;5027051;28;20019;-84
2022/07/19 00:40:49;;;;;;;;;;;;;;;;;;5030522;28;19916;-82
2022/07/19 00:43:34;;;;;;;;;;;;;;;;;;5018574;28;19920;-81
2022/07/19 00:46:19;;;;;;;;;;;;;;;;;;5019886;28;20302;-82
2022/07/19 00:49:04;;;;;;;;;;;;;;;;;;5017951;28;20289;-82
2022/07/19 00:51:49;;;;;;;;;;;;;;;;;;5024224;28;19951;-82
2022/07/19 00:54:31;;;;;;;;;;;;;;;;;;5023800;28;19967;-80
2022/07/19 00:57:16;;;;;;;;;;;;;;;;;;5011652;28;19929;-81
2022/07/19 01:00:01;;;;;;;;;;;;;;;;;;5015320;28;19924;-82
2022/07/19 01:02:45;;;;;;;;;;;;;;;;;;5012243;28;19998;-82
2022/07/19 01:05:27;;;;;;;;;;;;;;;;;;5011717;28;19971;-82
2022/07/19 01:08:09;;;;;;;;;;;;;;;;;;5026867;28;19915;-87
2022/07/19 01:10:51;;;;;;;;;;;;;;;;;;5021627;28;19920;-85
2022/07/19 01:13:36;;;;;;;;;;;;;;;;;;5019141;28;19952;-84
2022/07/19 01:16:20;;;;;;;;;;;;;;;;;;5024475;28;19921;-84
2022/07/19 01:19:05;;;;;;;;;;;;;;;;;;5015620;28;19929;-85
2022/07/19 01:21:50;;;;;;;;;;;;;;;;;;5022140;28;19998;-82
2022/07/19 01:24:35;;;;;;;;;;;;;;;;;;5013882;28;19924;-83
2022/07/19 01:27:20;;;;;;;;;;;;;;;;;;5018833;28;19932;-82
2022/07/19 01:30:05;;;;;;;;;;;;;;;;;;5020320;28;20020;-84
2022/07/19 01:32:50;;;;;;;;;;;;;;;;;;5020869;28;19920;-85
2022/07/19 01:35:35;;;;;;;;;;;;;;;;;;5019616;28;19920;-82
2022/07/19 01:38:20;;;;;;;;;;;;;;;;;;5023998;28;20721;-84
2022/07/19 01:41:05;;;;;;;;;;;;;;;;;;5024372;28;19957;-80
2022/07/19 01:43:50;;;;;;;;;;;;;;;;;;5022294;28;19917;-81
2022/07/19 01:46:35;;;;;;;;;;;;;;;;;;5024823;28;19937;-81
2022/07/19 01:49:19;;;;;;;;;;;;;;;;;;5014370;28;19971;-82
2022/07/19 01:52:01;;;;;;;;;;;;;;;;;;5015894;28;19921;-82
2022/07/19 01:54:46;;;;;;;;;;;;;;;;;;5019069;28;19919;-82
2022/07/19 01:57:31;;;;;;;;;;;;;;;;;;5011261;28;19949;-81
2022/07/19 02:00:16;;;;;;;;;;;;;;;;;;5010970;28;20396;-81
2022/07/19 02:03:00;;;;;;;;;;;;;;;;;;5030588;28;19997;-81
2022/07/19 02:05:45;;;;;;;;;;;;;;;;;;5026406;28;19919;-81
2022/07/19 02:08:30;;;;;;;;;;;;;;;;;;5038551;28;19947;-81
2022/07/19 02:14:16;;;;;;;;;;;;;;;;;;5022635;28;19925;-81
2022/07/19 02:17:01;;;;;;;;;;;;;;;;;;5015650;28;19920;-81
2022/07/19 02:19:46;;;;;;;;;;;;;;;;;;5018138;28;19932;-81
2022/07/19 02:22:30;;;;;;;;;;;;;;;;;;5014531;28;20451;-81
2022/07/19 02:25:15;;;;;;;;;;;;;;;;;;5024915;28;19920;-81
2022/07/19 02:28:00;;;;;;;;;;;;;;;;;;5015910;28;19921;-81
2022/07/19 02:30:42;;;;;;;;;;;;;;;;;;5019995;28;19928;-81
2022/07/19 02:33:26;;;;;;;;;;;;;;;;;;5025017;28;19916;-81
2022/07/19 02:36:11;;;;;;;;;;;;;;;;;;5028374;28;19980;-82
2022/07/19 02:38:53;;;;;;;;;;;;;;;;;;5020319;28;20385;-80
2022/07/19 02:41:38;;;;;;;;;;;;;;;;;;5021395;28;20281;-80
2022/07/19 02:44:23;;;;;;;;;;;;;;;;;;5018790;28;20052;-82
2022/07/19 02:47:08;;;;;;;;;;;;;;;;;;5016562;28;19916;-82
2022/07/19 02:49:50;;;;;;;;;;;;;;;;;;5017846;28;20310;-82
2022/07/19 02:52:34;;;;;;;;;;;;;;;;;;5031743;28;19932;-82
2022/07/19 02:55:19;;;;;;;;;;;;;;;;;;5025146;28;19917;-82
2022/07/19 02:58:04;;;;;;;;;;;;;;;;;;5031983;28;19928;-82
2022/07/19 03:00:49;;;;;;;;;;;;;;;;;;5031852;28;20055;-82
2022/07/19 03:03:43;;;;;;;;;;;;;;;;;;5031191;28;20015;-82
2022/07/19 03:06:28;;;;;;;;;;;;;;;;;;5025979;28;20277;-79
2022/07/19 03:09:13;;;;;;;;;;;;;;;;;;5028509;28;20300;-81
2022/07/19 03:11:55;;;;;;;;;;;;;;;;;;5019313;28;19991;-82
2022/07/19 03:14:40;;;;;;;;;;;;;;;;;;5023484;28;19916;-81
2022/07/19 03:17:25;;;;;;;;;;;;;;;;;;5026779;28;19940;-80
2022/07/19 03:20:10;;;;;;;;;;;;;;;;;;5028209;28;20047;-80
2022/07/19 03:22:54;;;;;;;;;;;;;;;;;;5031970;28;19959;-80
2022/07/19 03:25:39;;;;;;;;;;;;;;;;;;5024468;28;20035;-80
2022/07/19 03:28:21;;;;;;;;;;;;;;;;;;5021637;28;20040;-81
2022/07/19 03:31:06;;;;;;;;;;;;;;;;;;5032293;28;19973;-80
2022/07/19 03:33:51;;;;;;;;;;;;;;;;;;5031129;28;20429;-80
2022/07/19 03:36:35;;;;;;;;;;;;;;;;;;5016276;28;19983;-80
2022/07/19 03:39:20;;;;;;;;;;;;;;;;;;5019147;28;20400;-80
2022/07/19 03:42:05;;;;;;;;;;;;;;;;;;5018315;28;20480;-80
2022/07/19 03:44:50;;;;;;;;;;;;;;;;;;5013745;28;20368;-80
2022/07/19 03:47:31;;;;;;;;;;;;;;;;;;5016312;28;19921;-80
2022/07/19 03:50:13;;;;;;;;;;;;;;;;;;5025636;28;20270;-81
2022/07/19 03:52:58;;;;;;;;;;;;;;;;;;5017787;28;19917;-81
2022/07/19 03:55:43;;;;;;;;;;;;;;;;;;5019744;28;20028;-80
2022/07/19 03:58:27;;;;;;;;;;;;;;;;;;5024513;28;20064;-80
2022/07/19 04:01:12;;;;;;;;;;;;;;;;;;5021360;28;19924;-80
2022/07/19 04:03:57;;;;;;;;;;;;;;;;;;5012850;28;19916;-80
2022/07/19 04:06:42;;;;;;;;;;;;;;;;;;5015514;28;20044;-80
2022/07/19 04:09:26;;;;;;;;;;;;;;;;;;5017017;28;19920;-80
2022/07/19 04:12:08;;;;;;;;;;;;;;;;;;5012903;28;19924;-81
2022/07/19 04:14:50;;;;;;;;;;;;;;;;;;5013063;28;19916;-81
2022/07/19 04:17:35;;;;;;;;;;;;;;;;;;5032406;28;20022;-81
2022/07/19 04:20:16;;;;;;;;;;;;;;;;;;5035049;28;19955;-81
2022/07/19 04:23:01;;;;;;;;;;;;;;;;;;5023808;28;20048;-81
2022/07/19 04:25:46;;;;;;;;;;;;;;;;;;5013704;28;20063;-81
2022/07/19 04:28:31;;;;;;;;;;;;;;;;;;5026116;28;20396;-81
2022/07/19 04:31:16;;;;;;;;;;;;;;;;;;5018674;28;20068;-81
2022/07/19 04:34:01;;;;;;;;;;;;;;;;;;5021231;28;20428;-81
2022/07/19 04:36:43;;;;;;;;;;;;;;;;;;5034912;28;19935;-81
2022/07/19 04:39:28;;;;;;;;;;;;;;;;;;5011520;28;20290;-80
2022/07/19 04:42:12;;;;;;;;;;;;;;;;;;5030946;28;20075;-81
2022/07/19 04:44:57;;;;;;;;;;;;;;;;;;5019067;28;20277;-81
2022/07/19 04:47:42;;;;;;;;;;;;;;;;;;5015521;28;19940;-81
2022/07/19 04:50:26;;;;;;;;;;;;;;;;;;5026587;28;19916;-81
2022/07/19 04:53:11;;;;;;;;;;;;;;;;;;5029173;28;19927;-81
2022/07/19 04:55:56;;;;;;;;;;;;;;;;;;5024010;28;19924;-81
2022/07/19 04:58:38;;;;;;;;;;;;;;;;;;5031086;28;19924;-81
2022/07/19 05:01:22;;;;;;;;;;;;;;;;;;5044297;28;19920;-81
2022/07/19 05:04:04;;;;;;;;;;;;;;;;;;5013451;28;19997;-81
2022/07/19 05:06:51;;;;;;;;;;;;;;;;;;5016529;28;19982;-80
2022/07/19 05:09:36;;;;;;;;;;;;;;;;;;5014313;28;19920;-81
2022/07/19 05:12:21;;;;;;;;;;;;;;;;;;5011838;28;19933;-81
2022/07/19 05:15:05;;;;;;;;;;;;;;;;;;5014331;28;19925;-81
2022/07/19 05:17:50;;;;;;;;;;;;;;;;;;5011873;28;20293;-80
2022/07/19 05:20:35;;;;;;;;;;;;;;;;;;5018642;28;19987;-81
2022/07/19 05:23:20;;;;;;;;;;;;;;;;;;5023310;28;19916;-81
2022/07/19 05:26:04;;;;;;;;;;;;;;;;;;5018085;28;20500;-80
2022/07/19 05:28:49;;;;;;;;;;;;;;;;;;5023801;28;20051;-81
2022/07/19 05:31:34;;;;;;;;;;;;;;;;;;5030258;28;19916;-81
2022/07/19 05:34:19;;;;;;;;;;;;;;;;;;5019201;28;19924;-80
2022/07/19 05:37:04;;;;;;;;;;;;;;;;;;5013084;28;20361;-81
2022/07/19 05:39:49;;;;;;;;;;;;;;;;;;5012630;28;19923;-81
2022/07/19 05:42:33;;;;;;;;;;;;;;;;;;5012979;28;19963;-81
2022/07/19 05:45:18;;;;;;;;;;;;;;;;;;5020980;28;19916;-81
2022/07/19 05:48:00;;;;;;;;;;;;;;;;;;5014239;28;20139;-81
2022/07/19 05:50:45;;;;;;;;;;;;;;;;;;5035483;28;19970;-80
2022/07/19 05:53:30;;;;;;;;;;;;;;;;;;5035194;28;19959;-81
2022/07/19 05:56:15;;;;;;;;;;;;;;;;;;5016031;28;19920;-81
2022/07/19 05:59:01;;;;;;;;;;;;;;;;;;5026418;28;19937;-81
2022/07/19 06:01:45;;;;;;;;;;;;;;;;;;5024232;28;20281;-81
2022/07/19 06:04:30;;;;;;;;;;;;;;;;;;5026216;28;19920;-81
2022/07/19 06:07:15;;;;;;;;;;;;;;;;;;5032188;28;20400;-81
2022/07/19 06:10:01;;;;;;;;;;;;;;;;;;5026264;28;19920;-81
2022/07/19 06:12:46;;;;;;;;;;;;;;;;;;5022366;28;19928;-81
2022/07/19 06:15:31;;;;;;;;;;;;;;;;;;5041529;28;20405;-81
2022/07/19 06:18:16;;;;;;;;;;;;;;;;;;5018510;28;20075;-81
2022/07/19 06:21:01;;;;;;;;;;;;;;;;;;5027159;28;19921;-81
2022/07/19 06:23:42;;;;;;;;;;;;;;;;;;5031512;28;19916;-81
2022/07/19 06:26:27;;;;;;;;;;;;;;;;;;5023310;28;19920;-81
2022/07/19 06:29:12;;;;;;;;;;;;;;;;;;5023666;28;19940;-81
2022/07/19 06:31:57;;;;;;;;;;;;;;;;;;5026498;28;19916;-80
2022/07/19 06:34:41;;;;;;;;;;;;;;;;;;5026772;28;19954;-80
2022/07/19 06:37:23;;;;;;;;;;;;;;;;;;5031580;28;20091;-80
2022/07/19 06:40:05;;;;;;;;;;;;;;;;;;5027292;28;19983;-80
2022/07/19 06:42:50;;;;;;;;;;;;;;;;;;5031236;28;19963;-81
2022/07/19 06:45:34;;;;;;;;;;;;;;;;;;5016452;28;19921;-81
2022/07/19 06:48:19;;;;;;;;;;;;;;;;;;5017500;28;19956;-82
2022/07/19 06:51:04;;;;;;;;;;;;;;;;;;5033734;28;19917;-81
2022/07/19 06:53:49;;;;;;;;;;;;;;;;;;5014378;28;19920;-80
2022/07/19 06:56:30;;;;;;;;;;;;;;;;;;5027053;28;20387;-80
2022/07/19 06:59:15;;;;;;;;;;;;;;;;;;5030242;28;19979;-81
2022/07/19 07:02:01;;;;;;;;;;;;;;;;;;5028842;28;20416;-80
2022/07/19 07:04:46;;;;;;;;;;;;;;;;;;5030323;28;19925;-80
2022/07/19 07:07:28;;;;;;;;;;;;;;;;;;5015592;28;19936;-81
2022/07/19 07:10:12;;;;;;;;;;;;;;;;;;5018330;28;20320;-81
2022/07/19 07:12:57;;;;;;;;;;;;;;;;;;5022414;28;19929;-82
2022/07/19 07:15:43;;;;;;;;;;;;;;;;;;5015310;28;20051;-82
2022/07/19 07:18:25;;;;;;;;;;;;;;;;;;5026268;28;19971;-82
2022/07/19 07:21:09;;;;;;;;;;;;;;;;;;5016103;28;20048;-82
2022/07/19 07:23:54;;;;;;;;;;;;;;;;;;5026548;28;19916;-82
2022/07/19 07:26:36;;;;;;;;;;;;;;;;;;5022217;28;20308;-80
2022/07/19 07:29:21;;;;;;;;;;;;;;;;;;5013613;28;20505;-82
2022/07/19 07:32:05;;;;;;;;;;;;;;;;;;5021922;28;19928;-81
2022/07/19 07:34:47;;;;;;;;;;;;;;;;;;5024542;28;19920;-81
2022/07/19 07:37:32;;;;;;;;;;;;;;;;;;5022207;28;20048;-81
2022/07/19 07:40:17;;;;;;;;;;;;;;;;;;5024269;28;19947;-81
2022/07/19 07:43:02;;;;;;;;;;;;;;;;;;5029320;28;20050;-81
2022/07/19 07:45:47;;;;;;;;;;;;;;;;;;5026683;28;19920;-81
2022/07/19 07:48:31;;;;;;;;;;;;;;;;;;5016606;28;19920;-81
2022/07/19 07:51:14;;;;;;;;;;;;;;;;;;5031914;28;19948;-81
2022/07/19 07:53:59;;;;;;;;;;;;;;;;;;5022852;28;20020;-81
2022/07/19 07:56:43;;;;;;;;;;;;;;;;;;5017870;28;19920;-81
2022/07/19 07:59:25;;;;;;;;;;;;;;;;;;5029612;28;19932;-81
2022/07/19 08:02:10;;;;;;;;;;;;;;;;;;5031332;28;20469;-81
2022/07/19 08:04:55;;;;;;;;;;;;;;;;;;5045709;28;19916;-81
2022/07/19 08:07:40;;;;;;;;;;;;;;;;;;5012979;28;19925;-81
2022/07/19 08:10:25;;;;;;;;;;;;;;;;;;5016476;28;19932;-81
2022/07/19 08:13:07;;;;;;;;;;;;;;;;;;5019002;28;19932;-81
2022/07/19 08:15:52;;;;;;;;;;;;;;;;;;5028511;28;19923;-81
2022/07/19 08:18:37;;;;;;;;;;;;;;;;;;5012903;28;19924;-81
2022/07/19 08:21:21;;;;;;;;;;;;;;;;;;5023671;28;19933;-81
2022/07/19 08:24:06;;;;;;;;;;;;;;;;;;5019306;28;19925;-81
2022/07/19 08:26:51;;;;;;;;;;;;;;;;;;5023843;28;20491;-81
2022/07/19 08:29:36;;;;;;;;;;;;;;;;;;5030727;28;19923;-81
2022/07/19 08:32:21;;;;;;;;;;;;;;;;;;5018112;28;20320;-81
2022/07/19 08:35:05;;;;;;;;;;;;;;;;;;5012503;28;19924;-81
2022/07/19 08:37:50;;;;;;;;;;;;;;;;;;5030704;28;20392;-80
2022/07/19 08:40:36;;;;;;;;;;;;;;;;;;5021754;28;20324;-80
2022/07/19 08:43:22;;;;;;;;;;;;;;;;;;5031135;28;19916;-81
2022/07/19 08:46:04;;;;;;;;;;;;;;;;;;5028689;28;20002;-80
2022/07/19 08:48:49;;;;;;;;;;;;;;;;;;5033579;28;20427;-81
2022/07/19 08:51:31;;;;;;;;;;;;;;;;;;5015508;28;19932;-81
2022/07/19 08:54:16;;;;;;;;;;;;;;;;;;5022559;28;19996;-80
2022/07/19 09:00:04;;;;;;;;;;;;;;;;;;5025192;28;20052;-80
2022/07/19 09:02:49;;;;;;;;;;;;;;;;;;5022815;28;20011;-81
2022/07/19 09:05:34;;;;;;;;;;;;;;;;;;5017584;28;19917;-81
2022/07/19 09:08:16;;;;;;;;;;;;;;;;;;5015871;28;19984;-80
2022/07/19 09:11:16;;;;;;;;;;;;;;;;;;5020471;28;19920;-81
2022/07/19 09:14:01;;;;;;;;;;;;;;;;;;5018025;28;19928;-81
2022/07/19 09:16:46;;;;;;;;;;;;;;;;;;5030393;28;20296;-81
2022/07/19 09:19:31;;;;;;;;;;;;;;;;;;5027485;28;19931;-81
2022/07/19 09:22:16;;;;;;;;;;;;;;;;;;5026077;28;19923;-81
2022/07/19 09:25:00;;;;;;;;;;;;;;;;;;5027434;28;20345;-81
2022/07/19 09:27:45;;;;;;;;;;;;;;;;;;5018031;28;20070;-81
2022/07/19 09:30:30;;;;;;;;;;;;;;;;;;5025217;28;19916;-81
2022/07/19 09:33:15;;;;;;;;;;;;;;;;;;5022161;28;19920;-81
2022/07/19 09:35:57;;;;;;;;;;;;;;;;;;5027166;28;19916;-81
2022/07/19 09:38:43;;;;;;;;;;;;;;;;;;5027580;28;20281;-82
2022/07/19 09:41:28;;;;;;;;;;;;;;;;;;5025979;28;19916;-81
2022/07/19 09:44:13;;;;;;;;;;;;;;;;;;5026285;28;19915;-81
2022/07/19 09:46:57;;;;;;;;;;;;;;;;;;5022619;28;19917;-81
2022/07/19 09:49:42;;;;;;;;;;;;;;;;;;5031789;28;19924;-81
2022/07/19 09:52:27;;;;;;;;;;;;;;;;;;5025166;28;19917;-81
2022/07/19 09:55:12;;;;;;;;;;;;;;;;;;5026444;28;20051;-81
2022/07/19 09:57:57;;;;;;;;;;;;;;;;;;5022675;28;19915;-81
2022/07/19 10:00:41;;;;;;;;;;;;;;;;;;5010658;28;20151;-81
2022/07/19 10:03:26;;;;;;;;;;;;;;;;;;5011394;28;19925;-81
2022/07/19 10:06:11;;;;;;;;;;;;;;;;;;5011486;28;19920;-82
2022/07/19 10:08:53;;;;;;;;;;;;;;;;;;5024030;28;19916;-81
2022/07/19 10:11:38;;;;;;;;;;;;;;;;;;5017839;28;20007;-81
2022/07/19 10:14:23;;;;;;;;;;;;;;;;;;5013530;28;19929;-81
2022/07/19 10:17:08;;;;;;;;;;;;;;;;;;5011336;28;20043;-81
2022/07/19 10:19:53;;;;;;;;;;;;;;;;;;5019138;28;19982;-81
2022/07/19 10:22:37;;;;;;;;;;;;;;;;;;5029698;28;20372;-81
2022/07/19 10:25:19;;;;;;;;;;;;;;;;;;5020363;28;20032;-81
2022/07/19 10:28:04;;;;;;;;;;;;;;;;;;5011990;28;20289;-81
2022/07/19 10:30:49;;;;;;;;;;;;;;;;;;5026438;28;19984;-81
2022/07/19 10:33:34;;;;;;;;;;;;;;;;;;5019066;28;19964;-81
2022/07/19 10:36:19;;;;;;;;;;;;;;;;;;5024993;28;19915;-81
2022/07/19 10:39:03;;;;;;;;;;;;;;;;;;5020661;28;20048;-81
2022/07/19 10:41:48;;;;;;;;;;;;;;;;;;5024156;28;20403;-81
2022/07/19 10:44:33;;;;;;;;;;;;;;;;;;5027890;28;20011;-81
2022/07/19 10:47:18;;;;;;;;;;;;;;;;;;5023164;28;19933;-81
2022/07/19 10:50:02;;;;;;;;;;;;;;;;;;5032493;28;19960;-82
2022/07/19 10:52:47;;;;;;;;;;;;;;;;;;5025591;28;19960;-82
2022/07/19 10:55:32;;;;;;;;;;;;;;;;;;5020400;28;19960;-81
2022/07/19 10:58:17;;;;;;;;;;;;;;;;;;5025534;28;19944;-81
2022/07/19 11:01:03;;;;;;;;;;;;;;;;;;5024000;28;19920;-82
2022/07/19 11:03:47;;;;;;;;;;;;;;;;;;5014000;28;19987;-82
2022/07/19 11:06:32;;;;;;;;;;;;;;;;;;5018664;28;20014;-82
2022/07/19 11:09:17;;;;;;;;;;;;;;;;;;5024885;28;19920;-81
2022/07/19 11:11:59;;;;;;;;;;;;;;;;;;5019319;28;20050;-82
2022/07/19 11:14:44;;;;;;;;;;;;;;;;;;5025664;28;20420;-81
2022/07/19 11:17:29;;;;;;;;;;;;;;;;;;5025883;28;19920;-82
2022/07/19 11:20:16;;;;;;;;;;;;;;;;;;5013599;28;19981;-80
2022/07/19 11:23:03;;;;;;;;;;;;;;;;;;5031057;28;19920;-80
2022/07/19 11:25:50;;;;;;;;;;;;;;;;;;5033120;28;19916;-80
2022/07/19 11:28:35;;;;;;;;;;;;;;;;;;5015634;28;19916;-80
2022/07/19 11:31:20;;;;;;;;;;;;;;;;;;5016984;28;19972;-80
2022/07/19 11:34:02;;;;;;;;;;;;;;;;;;5015462;28;19941;-81
2022/07/19 11:36:46;;;;;;;;;;;;;;;;;;5020043;28;20284;-81
2022/07/19 11:39:31;;;;;;;;;;;;;;;;;;5020438;28;19928;-81
2022/07/19 11:42:16;;;;;;;;;;;;;;;;;;5025276;28;20393;-82
2022/07/19 11:45:01;;;;;;;;;;;;;;;;;;5021548;28;19921;-81
2022/07/19 11:47:46;;;;;;;;;;;;;;;;;;5016239;28;20027;-82
2022/07/19 11:50:31;;;;;;;;;;;;;;;;;;5015678;28;19948;-82
2022/07/19 11:53:15;;;;;;;;;;;;;;;;;;5014250;28;19921;-82
2022/07/19 11:55:57;;;;;;;;;;;;;;;;;;5022696;28;19916;-80
2022/07/19 11:58:42;;;;;;;;;;;;;;;;;;5024310;28;20006;-80
2022/07/19 12:01:27;;;;;;;;;;;;;;;;;;5031101;28;19931;-80
2022/07/19 12:04:12;;;;;;;;;;;;;;;;;;5023544;28;19916;-82
2022/07/19 12:06:54;;;;;;;;;;;;;;;;;;5020334;28;20269;-81
2022/07/19 12:09:39;;;;;;;;;;;;;;;;;;5017511;28;19916;-81
2022/07/19 12:12:24;;;;;;;;;;;;;;;;;;5013758;28;20444;-81
2022/07/19 12:15:09;;;;;;;;;;;;;;;;;;5024679;28;19936;-81
2022/07/19 12:17:50;;;;;;;;;;;;;;;;;;5021669;28;19920;-81
2022/07/19 12:20:35;;;;;;;;;;;;;;;;;;5023673;28;19924;-81
2022/07/19 12:23:22;;;;;;;;;;;;;;;;;;5019667;28;19916;-81
2022/07/19 12:26:06;;;;;;;;;;;;;;;;;;5026284;28;19931;-81
2022/07/19 12:28:48;;;;;;;;;;;;;;;;;;5014487;28;19917;-81
2022/07/19 12:31:33;;;;;;;;;;;;;;;;;;5021595;28;19971;-82
2022/07/19 12:34:18;;;;;;;;;;;;;;;;;;5026992;28;20035;-82
2022/07/19 12:37:03;;;;;;;;;;;;;;;;;;5017605;28;19917;-80
2022/07/19 12:39:47;;;;;;;;;;;;;;;;;;5014682;28;19930;-80
2022/07/19 12:42:32;;;;;;;;;;;;;;;;;;5023755;28;20011;-80
2022/07/19 12:45:14;;;;;;;;;;;;;;;;;;5024485;28;19935;-81
2022/07/19 12:47:58;;;;;;;;;;;;;;;;;;5015337;28;19940;-81
2022/07/19 12:50:43;;;;;;;;;;;;;;;;;;5016838;28;19998;-81
2022/07/19 12:53:29;;;;;;;;;;;;;;;;;;5039772;28;19945;-81
2022/07/19 12:56:14;;;;;;;;;;;;;;;;;;5012603;28;19920;-81
2022/07/19 13:02:03;;;;;;;;;;;;;;;;;;5018298;28;19919;-82
2022/07/19 13:04:48;;;;;;;;;;;;;;;;;;5016780;28;20324;-81
2022/07/19 13:07:33;;;;;;;;;;;;;;;;;;5026517;28;19920;-81
2022/07/19 13:10:17;;;;;;;;;;;;;;;;;;5019224;28;20277;-81
2022/07/19 13:13:04;;;;;;;;;;;;;;;;;;5022746;28;19968;-81
2022/07/19 13:15:49;;;;;;;;;;;;;;;;;;5015482;28;20390;-81
2022/07/19 13:18:30;;;;;;;;;;;;;;;;;;5019317;28;20473;-82
2022/07/19 13:21:15;;;;;;;;;;;;;;;;;;5021613;28;19932;-81
2022/07/19 13:24:00;;;;;;;;;;;;;;;;;;5015674;28;19984;-81
2022/07/19 13:26:42;;;;;;;;;;;;;;;;;;5020871;28;20049;-81
2022/07/19 13:29:26;;;;;;;;;;;;;;;;;;5017023;28;19921;-81
2022/07/19 13:32:11;;;;;;;;;;;;;;;;;;5018311;28;19928;-81
2022/07/19 13:34:53;;;;;;;;;;;;;;;;;;5023337;28;20266;-81
2022/07/19 13:37:38;;;;;;;;;;;;;;;;;;5018427;28;19916;-81
2022/07/19 13:40:20;;;;;;;;;;;;;;;;;;5013517;28;19925;-81
2022/07/19 13:43:05;;;;;;;;;;;;;;;;;;5013544;28;20270;-81
2022/07/19 13:45:50;;;;;;;;;;;;;;;;;;5028548;28;20074;-81
2022/07/19 13:48:35;;;;;;;;;;;;;;;;;;5028493;28;19917;-81
2022/07/19 13:51:19;;;;;;;;;;;;;;;;;;5016147;28;19920;-81
2022/07/19 13:54:04;;;;;;;;;;;;;;;;;;5027639;28;19915;-82
2022/07/19 13:56:49;;;;;;;;;;;;;;;;;;5026353;28;19932;-81
2022/07/19 13:59:34;;;;;;;;;;;;;;;;;;5034090;28;19924;-83
2022/07/19 14:02:18;;;;;;;;;;;;;;;;;;5020012;28;20320;-82
2022/07/19 14:05:04;;;;;;;;;;;;;;;;;;5015328;28;20051;-81
2022/07/19 14:07:48;;;;;;;;;;;;;;;;;;5013419;28;19916;-81
2022/07/19 14:10:34;;;;;;;;;;;;;;;;;;5024402;28;20378;-81
2022/07/19 14:13:19;;;;;;;;;;;;;;;;;;5013544;28;19928;-82
2022/07/19 14:16:01;;;;;;;;;;;;;;;;;;5021278;28;19924;-80
2022/07/19 14:18:47;;;;;;;;;;;;;;;;;;5027130;28;20048;-80
2022/07/19 14:21:34;;;;;;;;;;;;;;;;;;5021498;28;19928;-80
2022/07/19 14:24:18;;;;;;;;;;;;;;;;;;5026263;28;20060;-81
2022/07/19 14:27:03;;;;;;;;;;;;;;;;;;5032799;28;19915;-80
2022/07/19 14:29:48;;;;;;;;;;;;;;;;;;5021870;28;20240;-80
2022/07/19 14:32:33;;;;;;;;;;;;;;;;;;5020130;28;20069;-80
2022/07/19 14:35:17;;;;;;;;;;;;;;;;;;5016288;28;20289;-80
2022/07/19 14:38:02;;;;;;;;;;;;;;;;;;5022439;28;19940;-80
2022/07/19 14:40:47;;;;;;;;;;;;;;;;;;5021312;28;20047;-80
2022/07/19 14:43:32;;;;;;;;;;;;;;;;;;5020445;28;20305;-80
2022/07/19 14:46:16;;;;;;;;;;;;;;;;;;5024255;28;19924;-82
2022/07/19 14:49:01;;;;;;;;;;;;;;;;;;5017390;28;19920;-81
2022/07/19 14:51:46;;;;;;;;;;;;;;;;;;5019657;28;20281;-81
2022/07/19 14:54:31;;;;;;;;;;;;;;;;;;5038222;28;19935;-81
2022/07/19 14:57:16;;;;;;;;;;;;;;;;;;5026808;28;19920;-81
2022/07/19 15:00:00;;;;;;;;;;;;;;;;;;5016977;28;20266;-81
2022/07/19 15:02:42;;;;;;;;;;;;;;;;;;5016672;28;20013;-80
2022/07/19 15:05:27;;;;;;;;;;;;;;;;;;5018386;28;20562;-81
2022/07/19 15:08:12;;;;;;;;;;;;;;;;;;5017128;28;19928;-82
2022/07/19 15:10:54;;;;;;;;;;;;;;;;;;5020649;28;20040;-81
2022/07/19 15:13:39;;;;;;;;;;;;;;;;;;4974959;28;19933;-81
2022/07/19 15:16:24;;;;;;;;;;;;;;;;;;4991002;28;20285;-81
2022/07/19 15:19:09;;;;;;;;;;;;;;;;;;4991051;28;20136;-81
2022/07/19 15:21:54;;;;;;;;;;;;;;;;;;4982931;28;19917;-81
2022/07/19 15:24:38;;;;;;;;;;;;;;;;;;4977730;28;19925;-81
2022/07/19 15:27:23;;;;;;;;;;;;;;;;;;4977660;28;19972;-81
2022/07/19 15:30:08;;;;;;;;;;;;;;;;;;4983301;28;20413;-81
2022/07/19 15:32:53;;;;;;;;;;;;;;;;;;4984240;28;19917;-81
2022/07/19 15:35:38;;;;;;;;;;;;;;;;;;4988663;28;19920;-82
2022/07/19 15:38:19;;;;;;;;;;;;;;;;;;4993640;28;19916;-81
2022/07/19 15:41:04;;;;;;;;;;;;;;;;;;4987866;28;19929;-81
2022/07/19 15:43:49;;;;;;;;;;;;;;;;;;4988894;28;20048;-81
2022/07/19 15:46:31;;;;;;;;;;;;;;;;;;4988131;28;19920;-81
2022/07/19 15:49:16;;;;;;;;;;;;;;;;;;4979495;28;20552;-81
2022/07/19 15:52:00;;;;;;;;;;;;;;;;;;4985959;28;19977;-81
2022/07/19 15:54:45;;;;;;;;;;;;;;;;;;4984340;28;19932;-81
2022/07/19 15:57:30;;;;;;;;;;;;;;;;;;4987644;28;20380;-81
2022/07/19 16:00:15;;;;;;;;;;;;;;;;;;4993710;28;20011;-81
2022/07/19 16:02:59;;;;;;;;;;;;;;;;;;4992267;28;19977;-81
2022/07/19 16:05:44;;;;;;;;;;;;;;;;;;4982847;28;19917;-80
2022/07/19 16:08:29;;;;;;;;;;;;;;;;;;4977753;28;20037;-81
2022/07/19 16:11:14;;;;;;;;;;;;;;;;;;4991878;28;20456;-81
2022/07/19 16:13:58;;;;;;;;;;;;;;;;;;5020540;28;19929;-81
2022/07/19 16:16:43;;;;;;;;;;;;;;;;;;5037881;28;20010;-81
2022/07/19 16:19:28;;;;;;;;;;;;;;;;;;5026246;28;19928;-81
2022/07/19 16:22:13;;;;;;;;;;;;;;;;;;5017873;28;19916;-81
2022/07/19 16:24:54;;;;;;;;;;;;;;;;;;5019385;28;19999;-81
2022/07/19 16:27:39;;;;;;;;;;;;;;;;;;5034241;28;19920;-81
2022/07/19 16:30:24;;;;;;;;;;;;;;;;;;5039053;28;20273;-81
2022/07/19 16:33:10;;;;;;;;;;;;;;;;;;5035528;28;20081;-81
2022/07/19 16:35:54;;;;;;;;;;;;;;;;;;5026355;28;19919;-81
2022/07/19 16:38:36;;;;;;;;;;;;;;;;;;5024698;28;20409;-81
2022/07/19 16:41:21;;;;;;;;;;;;;;;;;;5018813;28;19960;-81
2022/07/19 16:44:05;;;;;;;;;;;;;;;;;;5023446;28;19987;-81
2022/07/19 16:46:47;;;;;;;;;;;;;;;;;;5013976;28;20416;-81
2022/07/19 16:49:30;;;;;;;;;;;;;;;;;;5015002;28;19916;-81
2022/07/19 16:52:11;;;;;;;;;;;;;;;;;;5016699;28;20016;-80
2022/07/19 16:54:56;;;;;;;;;;;;;;;;;;5012475;28;20436;-80
2022/07/19 16:57:41;;;;;;;;;;;;;;;;;;5018349;28;19968;-80
2022/07/19 17:00:22;;;;;;;;;;;;;;;;;;5023729;28;19925;-81
2022/07/19 17:03:07;;;;;;;;;;;;;;;;;;5026169;28;19963;-80
2022/07/19 17:05:52;;;;;;;;;;;;;;;;;;5024786;28;20063;-80
2022/07/19 17:08:34;;;;;;;;;;;;;;;;;;5014624;28;20075;-80
2022/07/19 17:11:15;;;;;;;;;;;;;;;;;;5016524;28;19916;-80
2022/07/19 17:14:00;;;;;;;;;;;;;;;;;;5022357;28;20369;-80
2022/07/19 17:16:45;;;;;;;;;;;;;;;;;;5033956;28;20495;-80
2022/07/19 17:19:30;;;;;;;;;;;;;;;;;;5024677;28;19975;-80
2022/07/19 17:22:15;;;;;;;;;;;;;;;;;;5022153;28;19920;-81
2022/07/19 17:25:00;;;;;;;;;;;;;;;;;;5011369;28;19916;-81
2022/07/19 17:27:45;;;;;;;;;;;;;;;;;;5027678;28;19915;-81
2022/07/19 17:30:30;;;;;;;;;;;;;;;;;;5016307;28;20293;-81
2022/07/19 17:33:15;;;;;;;;;;;;;;;;;;5020476;28;20120;-82
2022/07/19 17:36:00;;;;;;;;;;;;;;;;;;5019167;28;20052;-81
2022/07/19 17:38:44;;;;;;;;;;;;;;;;;;5012824;28;20004;-81
2022/07/19 17:41:29;;;;;;;;;;;;;;;;;;5012230;28;19944;-81
2022/07/19 17:44:11;;;;;;;;;;;;;;;;;;5015944;28;20458;-81
2022/07/19 17:46:55;;;;;;;;;;;;;;;;;;5022621;28;19924;-81
2022/07/19 17:49:40;;;;;;;;;;;;;;;;;;5026781;28;19916;-81
2022/07/19 17:52:25;;;;;;;;;;;;;;;;;;5037165;28;20039;-81
2022/07/19 17:55:10;;;;;;;;;;;;;;;;;;5024169;28;19917;-80
2022/07/19 17:57:54;;;;;;;;;;;;;;;;;;5022278;28;19992;-80
2022/07/19 18:00:39;;;;;;;;;;;;;;;;;;5038721;28;19924;-80
2022/07/19 18:03:24;;;;;;;;;;;;;;;;;;5031441;28;19924;-80
2022/07/19 18:06:09;;;;;;;;;;;;;;;;;;5029948;28;20549;-80
2022/07/19 18:08:54;;;;;;;;;;;;;;;;;;5031896;28;19971;-80
2022/07/19 18:11:39;;;;;;;;;;;;;;;;;;5031959;28;20052;-80
2022/07/19 18:14:20;;;;;;;;;;;;;;;;;;5033828;28;19936;-80
2022/07/19 18:17:05;;;;;;;;;;;;;;;;;;5040203;28;19920;-80
2022/07/19 18:19:50;;;;;;;;;;;;;;;;;;5030979;28;19960;-81
2022/07/19 18:22:32;;;;;;;;;;;;;;;;;;5027945;28;20309;-80
2022/07/19 18:25:17;;;;;;;;;;;;;;;;;;5031412;28;19960;-81
2022/07/19 18:28:02;;;;;;;;;;;;;;;;;;5038965;28;20051;-82
2022/07/19 18:30:46;;;;;;;;;;;;;;;;;;5034279;28;19962;-80
2022/07/19 18:33:28;;;;;;;;;;;;;;;;;;5036845;28;20006;-81
2022/07/19 18:36:13;;;;;;;;;;;;;;;;;;5036747;28;19920;-80
2022/07/19 18:38:55;;;;;;;;;;;;;;;;;;5035428;28;20061;-80
2022/07/19 18:41:40;;;;;;;;;;;;;;;;;;5029895;28;19928;-80
2022/07/19 18:44:26;;;;;;;;;;;;;;;;;;5032718;28;19928;-80
2022/07/19 18:47:10;;;;;;;;;;;;;;;;;;5031128;28;19938;-80
2022/07/19 18:49:55;;;;;;;;;;;;;;;;;;5017507;28;19916;-81
2022/07/19 18:52:40;;;;;;;;;;;;;;;;;;5023409;28;20055;-80